Du har inga inställningar för hoppväder.nu

Hoppväder.nu

Senast uppdaterat 02:13

UTC-tid

2019-12-06 kl. 01:13


Sol och måne

Solen går upp 8:50 och går ner 14:48 (beräknade cirkatider)
Nästa fullmåne blir om 6 dagar (2019-12-12)

METAR

ESSD (Borlänge)
(23 minuter sedan)
ESSD 060050Z AUTO 22012KT 190V250 9999 SCT019/// OVC084/// 05/02 Q0986=



ESOE (Örebro)
(23 minuter sedan)
ESOE 060050Z 21014KT 9000 -RA BKN012 06/04 Q0990=



ESOW (Västerås)
(23 minuter sedan)
ESOW 060050Z AUTO 20015KT 6000 DZ BKN012/// OVC017/// 06/04 Q0990=



ESOK (Karlstad)
(23 minuter sedan)
ESOK 060050Z AUTO 19013KT 8000 -RA FEW007/// SCT011/// BKN013/// 05/05 Q0988=






TAF

ESSD (Borlänge)
ESSD



ESOE (Örebro)
(103 minuter sedan)
ESOE 052330Z 0600/0609 22015KT 9999 -RA BKN016 TEMPO 0600/0609 2500 RA BKN008=



ESOW (Västerås)
(463 minuter sedan)
ESOW 051730Z 0518/0522 22015G25KT 9999 BKN025=



ESOK (Karlstad)
ESOK





Kodnycklar till TAF och METAR






LHP

(Borlänge är område F2a i Norra delen)

Prognos är inte uppdaterad




Spotting

Hur fungerar spotthjälpen och Vindkartan?

Markvind är ca 0 m/s.



Vindkartan

Senast uppdaterad 02:13




All data kommer från LFV.se